Time;durP1;ratioP1;P1;durP2;ratioP2;P2;SDS_P1;SDS_P2;PMS_P1;PMS_P2;Temp;Humidity;BMP_temperature;BMP_pressure;BME280_temperature;BME280_humidity;BME280_pressure;Samples;Min_cycle;Max_cycle;Signal;HPM_P1;HPM_P2
2021/01/11 00:01:47;;;;;;;29.27;15.90;;;;;;;-0.80;60.11;97145.16;5070577;28;20211;-64
2021/01/11 00:04:13;;;;;;;29.57;16.90;;;;;;;-0.80;60.32;97144.28;5070380;28;20182;-65
2021/01/11 00:06:44;;;;;;;27.60;16.00;;;;;;;-0.82;60.07;97152.13;5071038;28;20168;-64
2021/01/11 00:09:10;;;;;;;25.77;15.23;;;;;;;-0.79;60.27;97153.69;5048089;28;20209;-67
2021/01/11 00:11:36;;;;;;;25.70;14.93;;;;;;;-0.78;60.12;97155.34;5047521;28;20416;-69
2021/01/11 00:14:03;;;;;;;29.30;16.33;;;;;;;-0.78;59.92;97153.63;5050310;28;20417;-67
2021/01/11 00:16:29;;;;;;;28.50;14.93;;;;;;;-0.86;59.95;97145.47;5032659;28;20583;-66
2021/01/11 00:18:55;;;;;;;26.20;14.33;;;;;;;-0.84;60.26;97155.69;5016806;28;20444;-67
2021/01/11 00:21:21;;;;;;;25.20;14.90;;;;;;;-0.84;59.96;97164.22;5049728;28;20425;-66
2021/01/11 00:23:47;;;;;;;29.90;16.07;;;;;;;-0.86;59.71;97155.75;5051469;28;20190;-66
2021/01/11 00:26:13;;;;;;;30.13;16.17;;;;;;;-0.86;59.46;97154.94;5070418;28;20431;-65
2021/01/11 00:28:39;;;;;;;23.30;14.23;;;;;;;-0.89;59.42;97150.78;5053664;28;20621;-65
2021/01/11 00:31:05;;;;;;;32.87;16.10;;;;;;;-0.92;59.55;97150.94;5064096;28;20179;-66
2021/01/11 00:33:31;;;;;;;23.87;14.37;;;;;;;-0.96;59.21;97146.88;5072318;28;20413;-67
2021/01/11 00:35:56;;;;;;;28.77;15.30;;;;;;;-1.10;59.86;97145.84;5054803;28;20239;-66
2021/01/11 00:38:22;;;;;;;29.80;16.90;;;;;;;-1.13;59.97;97145.19;5053087;28;20222;-66
2021/01/11 00:40:48;;;;;;;29.57;15.33;;;;;;;-1.18;59.72;97140.28;5054516;28;20244;-67
2021/01/11 00:43:14;;;;;;;25.27;14.80;;;;;;;-1.13;59.89;97140.88;5052987;28;20563;-66
2021/01/11 00:45:39;;;;;;;26.03;15.40;;;;;;;-1.29;60.21;97140.03;5062348;28;20181;-66
2021/01/11 00:48:06;;;;;;;28.63;15.97;;;;;;;-1.29;60.39;97143.41;5060421;28;20277;-66
2021/01/11 00:50:31;;;;;;;24.93;15.70;;;;;;;-1.32;60.25;97135.03;5066425;28;20262;-65
2021/01/11 00:52:57;;;;;;;26.37;15.47;;;;;;;-1.30;60.47;97138.38;5062751;28;20451;-67
2021/01/11 00:55:23;;;;;;;25.13;14.53;;;;;;;-1.24;60.18;97138.03;5057774;28;20184;-66
2021/01/11 00:57:48;;;;;;;27.17;15.77;;;;;;;-1.28;59.85;97141.69;5050612;28;20335;-66
2021/01/11 01:00:15;;;;;;;26.03;14.50;;;;;;;-1.42;60.13;97138.09;5053000;28;20228;-66
2021/01/11 01:02:41;;;;;;;23.40;14.47;;;;;;;-1.70;61.52;97142.06;5066237;28;20190;-66
2021/01/11 01:05:10;;;;;;;26.70;15.33;;;;;;;-1.77;61.23;97142.47;5070776;28;20421;-66
2021/01/11 01:07:40;;;;;;;31.20;15.83;;;;;;;-1.91;61.58;97143.97;5071886;28;20192;-66
2021/01/11 01:10:06;;;;;;;28.23;15.33;;;;;;;-2.01;61.22;97142.78;5071329;28;20408;-67
2021/01/11 01:12:33;;;;;;;28.07;15.77;;;;;;;-2.13;61.51;97151.09;5072986;28;20423;-66
2021/01/11 01:14:58;;;;;;;27.27;15.00;;;;;;;-2.14;61.63;97144.28;5072779;28;20433;-65
2021/01/11 01:17:24;;;;;;;30.07;14.80;;;;;;;-2.08;61.98;97149.94;5070468;28;20465;-66
2021/01/11 01:19:50;;;;;;;27.47;14.33;;;;;;;-1.95;61.55;97149.34;5073353;28;20470;-67
2021/01/11 01:22:16;;;;;;;24.20;15.17;;;;;;;-1.83;60.96;97146.16;5072793;28;20187;-65
2021/01/11 01:24:41;;;;;;;25.77;13.87;;;;;;;-1.77;60.49;97148.44;5064400;28;20181;-65
2021/01/11 01:27:07;;;;;;;23.57;13.77;;;;;;;-1.78;60.14;97141.63;5070161;28;20185;-66
2021/01/11 01:29:33;;;;;;;24.90;14.00;;;;;;;-1.90;60.67;97134.53;5072709;28;20175;-66
2021/01/11 01:31:59;;;;;;;24.73;14.07;;;;;;;-1.84;60.60;97149.63;5062873;28;20670;-66
2021/01/11 01:34:25;;;;;;;25.30;13.70;;;;;;;-1.74;60.23;97140.56;5037609;28;20207;-65
2021/01/11 01:36:50;;;;;;;25.80;14.10;;;;;;;-1.80;60.23;97146.03;5072396;28;20585;-65
2021/01/11 01:39:16;;;;;;;29.50;16.17;;;;;;;-2.10;60.82;97149.19;5070693;28;20198;-65
2021/01/11 01:41:42;;;;;;;31.30;17.13;;;;;;;-2.23;62.09;97159.25;5070187;28;20195;-66
2021/01/11 01:44:07;;;;;;;24.87;14.40;;;;;;;-2.39;62.41;97153.16;5072243;28;20660;-65
2021/01/11 01:46:34;;;;;;;26.20;14.10;;;;;;;-2.19;62.59;97159.91;5072496;28;20173;-64
2021/01/11 01:49:00;;;;;;;31.77;16.23;;;;;;;-2.07;62.02;97155.91;5063607;28;20204;-67
2021/01/11 01:51:26;;;;;;;26.77;14.90;;;;;;;-2.27;62.75;97151.75;5072074;28;20502;-65
2021/01/11 01:53:52;;;;;;;26.43;14.13;;;;;;;-2.14;61.90;97150.22;5063925;28;20429;-66
2021/01/11 01:56:18;;;;;;;27.80;13.37;;;;;;;-2.27;62.12;97159.47;5068881;28;20450;-66
2021/01/11 01:58:44;;;;;;;26.30;14.90;;;;;;;-2.40;61.87;97154.91;5071292;28;20931;-66
2021/01/11 02:01:10;;;;;;;23.73;14.03;;;;;;;-2.68;62.60;97158.78;5071886;28;21011;-65
2021/01/11 02:03:37;;;;;;;24.50;13.93;;;;;;;-2.45;62.32;97161.13;5072419;28;20425;-65
2021/01/11 02:06:03;;;;;;;23.50;13.30;;;;;;;-2.53;62.28;97157.22;5080405;28;21657;-66
2021/01/11 02:08:51;;;;;;;28.43;15.20;;;;;;;-2.52;62.23;97158.06;5085635;28;20448;-66
2021/01/11 02:11:23;;;;;;;23.90;13.90;;;;;;;-2.42;62.33;97153.31;5069061;28;20418;-65
2021/01/11 02:13:52;;;;;;;29.03;14.47;;;;;;;-2.49;61.80;97152.75;5075988;28;20425;-66
2021/01/11 02:16:20;;;;;;;25.40;13.40;;;;;;;-2.36;62.19;97148.72;5080234;28;20443;-65
2021/01/11 02:18:55;;;;;;;24.17;13.70;;;;;;;-2.42;61.48;97149.03;5081234;28;20437;-67
2021/01/11 02:21:30;;;;;;;25.83;13.10;;;;;;;-2.38;62.10;97145.38;5081313;28;20431;-67
2021/01/11 02:24:09;;;;;;;24.90;14.77;;;;;;;-3.12;63.50;97143.66;5075522;28;20571;-64
2021/01/11 02:26:57;;;;;;;28.67;14.87;;;;;;;-3.38;64.27;97137.94;5066967;28;20412;-64
2021/01/11 02:29:34;;;;;;;25.70;13.37;;;;;;;-3.34;64.73;97138.69;5064118;28;20448;-65
2021/01/11 02:32:00;;;;;;;30.27;14.70;;;;;;;-3.15;63.63;97133.56;5071336;28;20422;-65
2021/01/11 02:34:27;;;;;;;28.20;14.53;;;;;;;-2.87;63.12;97135.69;5071224;28;20425;-65
2021/01/11 02:36:54;;;;;;;26.33;13.90;;;;;;;-2.82;63.57;97136.28;5070977;28;20970;-64
2021/01/11 02:39:20;;;;;;;23.70;13.00;;;;;;;-2.65;62.51;97134.69;5070175;28;20436;-65
2021/01/11 02:41:45;;;;;;;26.37;14.10;;;;;;;-2.60;62.57;97139.59;5068947;28;21112;-67
2021/01/11 02:44:11;;;;;;;24.07;13.17;;;;;;;-2.65;61.82;97132.97;5069701;28;20269;-67
2021/01/11 02:46:37;;;;;;;23.37;13.27;;;;;;;-2.81;62.70;97137.16;5070891;28;20595;-69
2021/01/11 02:49:09;;;;;;;24.57;13.67;;;;;;;-2.64;62.54;97126.91;5064093;28;20217;-66
2021/01/11 02:51:46;;;;;;;26.80;13.00;;;;;;;-2.51;61.53;97132.31;5070047;28;20182;-66
2021/01/11 02:54:18;;;;;;;22.27;12.40;;;;;;;-2.51;61.47;97124.59;5070328;28;20510;-66
2021/01/11 02:57:20;;;;;;;23.60;12.37;;;;;;;-2.40;61.23;97120.69;5066687;28;20847;-67
2021/01/11 02:59:48;;;;;;;25.70;12.77;;;;;;;-2.39;61.19;97118.03;5050857;28;20452;-67
2021/01/11 03:02:16;;;;;;;23.70;12.40;;;;;;;-2.32;61.38;97114.28;5069505;28;20418;-67
2021/01/11 03:04:42;;;;;;;25.97;12.30;;;;;;;-2.33;61.60;97127.19;5071617;28;20950;-66
2021/01/11 03:07:08;;;;;;;25.30;13.20;;;;;;;-2.26;61.11;97123.44;5064446;28;20411;-66
2021/01/11 03:09:37;;;;;;;25.63;12.73;;;;;;;-2.39;61.07;97125.75;5069475;28;20426;-65
2021/01/11 03:12:03;;;;;;;27.20;13.23;;;;;;;-2.56;61.70;97133.44;5068649;28;20504;-65
2021/01/11 03:14:29;;;;;;;23.80;12.97;;;;;;;-2.68;61.99;97133.09;5071317;28;20504;-66
2021/01/11 03:16:55;;;;;;;26.13;14.37;;;;;;;-2.68;61.97;97134.81;5071090;28;20453;-65
2021/01/11 03:19:21;;;;;;;23.60;13.43;;;;;;;-2.53;62.16;97130.72;5068334;28;20201;-67
2021/01/11 03:21:47;;;;;;;22.90;12.53;;;;;;;-2.44;61.35;97125.16;5070424;28;20421;-66
2021/01/11 03:24:17;;;;;;;25.57;13.60;;;;;;;-2.39;60.72;97120.59;5071120;28;20428;-65
2021/01/11 03:26:43;;;;;;;20.93;11.57;;;;;;;-2.42;60.51;97110.50;5067604;28;20437;-66
2021/01/11 03:29:09;;;;;;;21.67;12.23;;;;;;;-2.44;60.91;97120.00;5071255;28;20443;-66
2021/01/11 03:31:35;;;;;;;23.00;12.73;;;;;;;-2.78;61.73;97124.19;5070561;28;20424;-66
2021/01/11 03:34:00;;;;;;;21.20;13.27;;;;;;;-3.03;62.92;97122.75;5069413;28;20236;-66
2021/01/11 03:36:26;;;;;;;24.60;13.40;;;;;;;-3.42;63.17;97123.63;5075581;28;20196;-66
2021/01/11 03:38:52;;;;;;;24.37;12.17;;;;;;;-3.24;64.01;97125.34;5070703;28;20205;-66
2021/01/11 03:41:18;;;;;;;27.43;14.80;;;;;;;-3.37;63.50;97129.38;5063537;28;20221;-66
2021/01/11 03:43:45;;;;;;;25.50;14.27;;;;;;;-3.38;63.30;97122.56;5067140;28;20202;-67
2021/01/11 03:46:15;;;;;;;26.03;13.90;;;;;;;-3.20;63.45;97126.06;5070620;28;20452;-67
2021/01/11 03:48:42;;;;;;;29.60;14.23;;;;;;;-3.20;62.72;97130.34;5061703;28;20451;-67
2021/01/11 03:51:08;;;;;;;27.87;13.27;;;;;;;-3.33;63.37;97133.47;5070415;28;20409;-65
2021/01/11 03:53:34;;;;;;;26.90;14.07;;;;;;;-3.10;63.91;97134.16;5070910;28;20491;-65
2021/01/11 03:56:04;;;;;;;28.20;14.30;;;;;;;-2.89;63.01;97118.69;5066909;28;20552;-66
2021/01/11 03:58:30;;;;;;;28.93;14.27;;;;;;;-2.80;62.37;97115.72;5072224;28;20579;-66
2021/01/11 04:00:59;;;;;;;28.07;15.10;;;;;;;-2.76;62.00;97119.78;5073842;28;20444;-65
2021/01/11 04:03:26;;;;;;;24.77;12.53;;;;;;;-2.79;61.67;97118.19;5074106;28;20176;-65
2021/01/11 04:05:52;;;;;;;25.07;12.47;;;;;;;-2.97;62.33;97114.75;5074143;28;20432;-65
2021/01/11 04:08:18;;;;;;;26.27;13.33;;;;;;;-3.23;63.15;97115.97;5074492;28;20794;-65
2021/01/11 04:10:44;;;;;;;27.00;13.90;;;;;;;-3.44;63.34;97121.13;5074347;28;20432;-66
2021/01/11 04:13:09;;;;;;;23.37;13.00;;;;;;;-3.38;63.29;97122.56;5074356;28;20428;-65
2021/01/11 04:15:35;;;;;;;26.23;14.50;;;;;;;-3.30;63.43;97130.78;5067369;28;20596;-65
2021/01/11 04:18:01;;;;;;;29.87;15.00;;;;;;;-3.13;62.48;97124.88;5072503;28;20201;-65
2021/01/11 04:20:27;;;;;;;30.97;14.43;;;;;;;-3.06;62.67;97124.59;5063985;28;20180;-64
2021/01/11 04:22:53;;;;;;;28.00;14.00;;;;;;;-3.67;63.80;97118.72;5066366;28;20985;-65
2021/01/11 04:25:19;;;;;;;26.13;13.37;;;;;;;-3.81;64.67;97130.38;5074498;28;20179;-65
2021/01/11 04:27:45;;;;;;;28.10;13.77;;;;;;;-3.55;64.20;97131.84;5068934;28;20444;-66
2021/01/11 04:30:11;;;;;;;26.90;13.50;;;;;;;-3.61;64.55;97139.78;5043192;28;20972;-66
2021/01/11 04:32:39;;;;;;;28.50;15.60;;;;;;;-3.84;64.75;97135.63;5071710;28;20186;-64
2021/01/11 04:35:09;;;;;;;31.07;15.07;;;;;;;-3.66;64.26;97131.50;5058538;28;20474;-66
2021/01/11 04:37:37;;;;;;;30.33;15.60;;;;;;;-3.82;64.80;97140.72;5061440;28;20548;-65
2021/01/11 04:40:06;;;;;;;26.73;15.70;;;;;;;-3.60;65.04;97128.66;5056762;28;20430;-66
2021/01/11 04:42:51;;;;;;;30.03;14.57;;;;;;;-3.47;65.20;97130.69;5055251;28;20992;-66
2021/01/11 04:45:21;;;;;;;33.87;16.40;;;;;;;-3.40;64.43;97139.75;5056600;28;20417;-65
2021/01/11 04:48:13;;;;;;;33.03;15.90;;;;;;;-3.47;64.64;97133.25;5057519;28;20930;-65
2021/01/11 04:50:40;;;;;;;31.30;16.00;;;;;;;-3.40;64.43;97137.19;5064827;28;20442;-66
2021/01/11 04:53:10;;;;;;;26.57;13.00;;;;;;;-3.37;64.49;97137.06;5057237;28;20432;-64
2021/01/11 04:55:37;;;;;;;24.60;13.70;;;;;;;-3.25;63.75;97138.25;5064390;28;20411;-65
2021/01/11 04:58:10;;;;;;;26.77;13.43;;;;;;;-3.56;63.31;97140.44;5055917;28;20447;-65
2021/01/11 05:00:37;;;;;;;31.50;15.37;;;;;;;-3.69;64.09;97144.41;5045276;28;20521;-67
2021/01/11 05:03:07;;;;;;;24.47;12.57;;;;;;;-3.46;63.46;97140.03;5054122;28;20516;-66
2021/01/11 05:05:36;;;;;;;28.83;14.57;;;;;;;-3.40;62.86;97140.59;5053419;28;20450;-67
2021/01/11 05:08:02;;;;;;;28.37;14.27;;;;;;;-3.25;63.25;97133.13;5060004;28;20964;-67
2021/01/11 05:10:32;;;;;;;29.10;13.17;;;;;;;-3.30;62.98;97130.78;5058016;28;20627;-66
2021/01/11 05:13:09;;;;;;;26.97;13.13;;;;;;;-3.13;62.49;97127.44;5056294;28;20424;-67
2021/01/11 05:15:35;;;;;;;24.93;13.10;;;;;;;-3.13;62.23;97126.59;5060848;28;20459;-66
2021/01/11 05:18:01;;;;;;;22.73;12.70;;;;;;;-3.18;62.65;97129.38;5061604;28;20471;-66
2021/01/11 05:20:28;;;;;;;25.60;12.80;;;;;;;-3.12;62.46;97118.00;5070540;28;20727;-63
2021/01/11 05:22:58;;;;;;;41.80;13.90;;;;;;;-3.14;62.38;97120.66;5065029;28;20424;-65
2021/01/11 05:25:26;;;;;;;31.30;12.40;;;;;;;-3.15;62.88;97124.13;5059301;28;20420;-64
2021/01/11 05:28:14;;;;;;;25.87;13.60;;;;;;;-3.01;62.56;97126.06;5063228;28;20929;-65
2021/01/11 05:30:44;;;;;;;30.40;13.37;;;;;;;-3.02;62.96;97132.06;5048454;28;20436;-66
2021/01/11 05:33:24;;;;;;;25.20;13.27;;;;;;;-3.06;62.83;97132.28;5035236;28;20505;-64
2021/01/11 05:36:10;;;;;;;25.30;12.70;;;;;;;-2.97;62.89;97137.84;5052686;28;20429;-66
2021/01/11 05:38:37;;;;;;;25.10;12.97;;;;;;;-2.89;62.86;97128.94;5053674;28;20482;-66
2021/01/11 05:41:23;;;;;;;27.13;13.83;;;;;;;-2.85;62.34;97135.63;5053198;28;20417;-66
2021/01/11 05:44:12;;;;;;;32.47;16.23;;;;;;;-2.88;62.85;97130.63;5052683;28;20439;-65
2021/01/11 05:46:38;;;;;;;31.80;14.50;;;;;;;-2.84;62.12;97127.88;5053018;28;20434;-67
2021/01/11 05:49:13;;;;;;;25.13;13.90;;;;;;;-2.84;62.62;97127.88;5052246;28;20441;-65
2021/01/11 05:51:39;;;;;;;32.47;15.43;;;;;;;-2.85;62.44;97127.91;5052626;28;20573;-67
2021/01/11 05:54:06;;;;;;;28.33;14.40;;;;;;;-2.80;62.02;97133.69;5052472;28;20425;-65
2021/01/11 05:56:52;;;;;;;34.53;16.00;;;;;;;-2.80;62.03;97144.75;5053435;28;20449;-64
2021/01/11 05:59:18;;;;;;;26.80;15.20;;;;;;;-3.01;62.24;97149.13;5046583;28;20449;-64
2021/01/11 06:01:43;;;;;;;27.60;14.83;;;;;;;-2.95;62.26;97150.59;5059786;28;20438;-67
2021/01/11 06:04:09;;;;;;;33.90;15.20;;;;;;;-2.86;62.39;97146.78;5045443;28;20190;-65
2021/01/11 06:06:35;;;;;;;26.97;13.33;;;;;;;-2.83;61.64;97144.06;5053052;28;20265;-65
2021/01/11 06:09:01;;;;;;;26.50;13.73;;;;;;;-2.88;61.47;97136.59;5052460;28;20641;-65
2021/01/11 06:11:27;;;;;;;26.73;14.83;;;;;;;-2.86;62.05;97141.66;5058104;28;20187;-66
2021/01/11 06:13:57;;;;;;;30.87;14.70;;;;;;;-2.79;62.12;97137.91;5055085;28;20654;-66
2021/01/11 06:16:25;;;;;;;27.43;13.73;;;;;;;-2.83;61.82;97133.81;5052890;28;20465;-66
2021/01/11 06:18:52;;;;;;;29.97;15.20;;;;;;;-2.78;62.16;97137.84;5060609;28;20474;-66
2021/01/11 06:21:18;;;;;;;25.30;13.93;;;;;;;-2.75;62.00;97139.41;5058764;28;20422;-66
2021/01/11 06:23:45;;;;;;;30.00;14.80;;;;;;;-2.72;61.79;97141.03;5052431;28;20517;-66
2021/01/11 06:26:26;;;;;;;29.07;13.97;;;;;;;-2.76;61.82;97140.31;5052203;28;20606;-64
2021/01/11 06:28:52;;;;;;;31.20;14.13;;;;;;;-2.72;61.50;97130.75;5050701;28;20480;-66
2021/01/11 06:31:18;;;;;;;27.90;15.07;;;;;;;-2.73;61.83;97129.91;5046742;28;20465;-65
2021/01/11 06:33:44;;;;;;;27.03;15.57;;;;;;;-2.76;61.90;97124.91;5059940;28;20430;-69
2021/01/11 06:36:18;;;;;;;29.10;14.70;;;;;;;-2.68;61.60;97127.97;5059865;28;20584;-66
2021/01/11 06:38:48;;;;;;;29.10;14.87;;;;;;;-2.83;63.64;97128.69;5069017;28;20441;-67
2021/01/11 06:41:20;;;;;;;27.40;15.03;;;;;;;-2.68;63.15;97122.84;5049313;28;20552;-66
2021/01/11 06:43:49;;;;;;;27.30;14.70;;;;;;;-2.60;62.21;97134.47;5072405;28;20436;-66
2021/01/11 06:46:30;;;;;;;28.83;15.33;;;;;;;-2.70;63.04;97128.94;5072707;28;20431;-65
2021/01/11 06:48:57;;;;;;;27.67;14.57;;;;;;;-2.63;62.41;97133.72;5064962;28;20443;-65
2021/01/11 06:51:51;;;;;;;29.47;14.63;;;;;;;-2.62;61.85;97129.41;5066548;28;20425;-66
2021/01/11 06:54:18;;;;;;;32.33;15.03;;;;;;;-2.59;62.30;97129.28;5058226;28;20433;-67
2021/01/11 06:56:44;;;;;;;29.13;14.70;;;;;;;-2.58;62.29;97133.47;5064385;28;20515;-70
2021/01/11 06:59:12;;;;;;;29.40;14.20;;;;;;;-2.56;62.55;97130.88;5070608;28;20433;-65
2021/01/11 07:01:40;;;;;;;28.60;15.10;;;;;;;-2.50;62.53;97130.56;5072366;28;20421;-66
2021/01/11 07:04:06;;;;;;;24.17;13.60;;;;;;;-2.48;62.23;97136.47;5060242;28;20842;-67
2021/01/11 07:06:35;;;;;;;28.90;15.50;;;;;;;-2.47;61.95;97145.81;5062800;28;20429;-66
2021/01/11 07:09:18;;;;;;;32.00;16.00;;;;;;;-2.57;62.16;97139.47;5054384;28;20437;-66
2021/01/11 07:11:46;;;;;;;29.63;15.13;;;;;;;-2.60;61.81;97144.75;5046905;28;20497;-68
2021/01/11 07:14:13;;;;;;;32.00;16.77;;;;;;;-2.62;61.75;97145.63;5053239;28;20418;-63
2021/01/11 07:16:59;;;;;;;39.20;17.90;;;;;;;-2.58;61.72;97142.94;5052516;28;20458;-67
2021/01/11 07:19:37;;;;;;;32.67;16.53;;;;;;;-2.59;61.29;97146.41;5051090;28;21027;-66
2021/01/11 07:22:09;;;;;;;30.57;15.90;;;;;;;-2.59;61.77;97152.38;5050285;28;20432;-65
2021/01/11 07:24:44;;;;;;;29.63;16.63;;;;;;;-2.59;61.34;97149.81;5038493;28;20935;-64
2021/01/11 07:27:10;;;;;;;36.53;15.43;;;;;;;-2.59;61.25;97146.41;5051551;28;20431;-64
2021/01/11 07:29:36;;;;;;;28.30;15.60;;;;;;;-2.60;60.88;97139.59;5054951;28;20530;-65
2021/01/11 07:32:02;;;;;;;35.93;15.43;;;;;;;-2.57;61.52;97149.72;5052671;28;20191;-66
2021/01/11 07:34:28;;;;;;;26.73;14.83;;;;;;;-2.65;61.34;97150.94;5061549;28;20196;-65
2021/01/11 07:36:55;;;;;;;30.13;15.67;;;;;;;-2.61;61.46;97149.06;5056085;28;20797;-63
2021/01/11 07:39:29;;;;;;;25.67;14.47;;;;;;;-2.67;61.64;97159.59;5076702;28;21000;-65
2021/01/11 07:41:57;;;;;;;31.53;15.03;;;;;;;-2.68;61.39;97158.78;5042304;28;20990;-64
2021/01/11 07:44:31;;;;;;;30.80;14.67;;;;;;;-2.66;61.46;97156.97;5076635;28;20533;-65
2021/01/11 07:47:00;;;;;;;27.80;15.37;;;;;;;-2.74;61.82;97163.34;5075061;28;20412;-65
2021/01/11 07:49:28;;;;;;;30.43;15.30;;;;;;;-2.62;61.63;97166.16;5063121;28;20456;-65
2021/01/11 07:51:56;;;;;;;30.20;15.60;;;;;;;-2.53;61.59;97169.22;5050435;28;20440;-66
2021/01/11 07:54:22;;;;;;;41.60;16.17;;;;;;;-2.51;61.25;97160.53;5064687;28;20438;-66
2021/01/11 07:56:50;;;;;;;31.30;16.07;;;;;;;-2.50;61.27;97158.78;5075242;28;20470;-67
2021/01/11 07:59:19;;;;;;;32.10;15.97;;;;;;;-2.47;61.38;97166.34;5073907;28;20451;-65
2021/01/11 08:01:47;;;;;;;32.20;15.93;;;;;;;-2.47;61.04;97161.22;5075298;28;20901;-65
2021/01/11 08:04:14;;;;;;;28.90;14.93;;;;;;;-2.43;61.08;97167.88;5071762;28;20489;-65
2021/01/11 08:06:57;;;;;;;32.07;15.97;;;;;;;-2.46;61.43;97180.84;5066512;28;20473;-64
2021/01/11 08:09:28;;;;;;;27.73;14.17;;;;;;;-2.38;61.16;97188.19;5068130;28;20447;-64
2021/01/11 08:12:09;;;;;;;29.63;15.40;;;;;;;-2.35;61.27;97191.44;5060381;28;20422;-66
2021/01/11 08:14:39;;;;;;;25.47;14.63;;;;;;;-2.25;60.68;97191.84;5075559;28;20531;-65
2021/01/11 08:17:06;;;;;;;26.80;14.50;;;;;;;-2.21;60.33;97195.09;5075075;28;20888;-68
2021/01/11 08:19:32;;;;;;;26.17;13.70;;;;;;;-2.24;60.75;97193.53;5075403;28;20468;-64
2021/01/11 08:22:00;;;;;;;28.30;14.33;;;;;;;-2.39;60.57;97197.63;5075851;28;20557;-65
2021/01/11 08:24:27;;;;;;;26.47;15.47;;;;;;;-2.25;60.82;97198.72;5053951;28;20483;-67
2021/01/11 08:27:05;;;;;;;27.13;15.03;;;;;;;-2.27;60.76;97200.53;5074881;28;20523;-65
2021/01/11 08:29:35;;;;;;;29.10;13.70;;;;;;;-2.22;60.18;97202.00;5079540;28;20523;-66
2021/01/11 08:32:04;;;;;;;31.90;15.47;;;;;;;-2.16;60.82;97186.28;5072550;28;20417;-66
2021/01/11 08:34:30;;;;;;;28.00;15.30;;;;;;;-2.11;60.68;97182.66;5078572;28;20421;-66
2021/01/11 08:36:55;;;;;;;27.80;14.47;;;;;;;-1.97;60.22;97185.41;5074120;28;20622;-63
2021/01/11 08:39:21;;;;;;;28.30;14.33;;;;;;;-2.05;59.99;97185.75;5068748;28;20216;-62
2021/01/11 08:41:53;;;;;;;28.77;14.67;;;;;;;-1.87;60.02;97188.31;5055284;28;20184;-66
2021/01/11 08:44:27;;;;;;;29.53;15.20;;;;;;;-2.01;59.79;97189.81;5069421;28;20201;-65
2021/01/11 08:47:02;;;;;;;29.67;15.47;;;;;;;-2.03;60.16;97196.81;5062170;28;20417;-66
2021/01/11 08:49:28;;;;;;;29.03;16.00;;;;;;;-2.10;60.34;97184.31;5060834;28;20433;-66
2021/01/11 08:52:05;;;;;;;25.03;15.10;;;;;;;-1.80;59.84;97179.44;5073587;28;20553;-65
2021/01/11 08:54:31;;;;;;;27.50;14.77;;;;;;;-1.83;59.30;97182.13;5069712;28;20283;-66
2021/01/11 08:56:58;;;;;;;26.90;14.37;;;;;;;-2.03;59.69;97176.25;5059350;28;20456;-67
2021/01/11 08:59:25;;;;;;;28.50;14.60;;;;;;;-2.05;59.97;97184.91;5040183;28;20254;-66
2021/01/11 09:01:51;;;;;;;27.20;14.47;;;;;;;-2.11;60.36;97188.63;5069174;28;20488;-63
2021/01/11 09:04:36;;;;;;;24.47;13.70;;;;;;;-1.82;59.68;97186.38;5057349;28;20435;-65
2021/01/11 09:07:06;;;;;;;27.13;13.80;;;;;;;-1.67;59.51;97176.25;5068828;28;20343;-66
2021/01/11 09:09:33;;;;;;;27.90;14.40;;;;;;;-1.67;59.90;97178.81;5074256;28;20446;-67
2021/01/11 09:12:08;;;;;;;27.23;14.77;;;;;;;-1.84;59.90;97157.34;5059617;28;20795;-64
2021/01/11 09:14:50;;;;;;;29.23;16.83;;;;;;;-1.83;59.67;97176.19;5055898;28;20427;-66
2021/01/11 09:17:25;;;;;;;25.27;14.57;;;;;;;-1.96;59.65;97188.78;5045315;28;20447;-63
2021/01/11 09:19:50;;;;;;;26.37;14.10;;;;;;;-1.49;58.83;97184.75;5071164;28;20459;-64
2021/01/11 09:22:16;;;;;;;31.53;15.00;;;;;;;-1.41;59.22;97183.47;5073933;28;20512;-64
2021/01/11 09:24:42;;;;;;;26.20;13.73;;;;;;;-1.40;58.51;97194.56;5065599;28;20185;-64
2021/01/11 09:27:09;;;;;;;27.43;15.50;;;;;;;-1.27;57.89;97200.75;5066819;28;20178;-66
2021/01/11 09:29:37;;;;;;;29.13;15.20;;;;;;;-1.10;58.36;97205.03;5074158;28;20433;-64
2021/01/11 09:32:03;;;;;;;27.03;14.63;;;;;;;-0.88;57.75;97214.19;5066964;28;20423;-64
2021/01/11 09:34:29;;;;;;;24.70;13.10;;;;;;;-0.72;56.59;97221.09;5068318;28;20427;-67
2021/01/11 09:36:54;;;;;;;22.93;12.80;;;;;;;-1.01;57.57;97218.34;5072866;28;20453;-66
2021/01/11 09:39:20;;;;;;;27.20;13.87;;;;;;;-0.62;56.68;97222.28;5072052;28;20245;-64
2021/01/11 09:41:54;;;;;;;21.17;11.87;;;;;;;-0.31;55.79;97210.31;5058429;28;20683;-66
2021/01/11 09:44:21;;;;;;;25.60;12.93;;;;;;;-0.34;55.71;97189.88;5047325;28;20185;-64
2021/01/11 09:46:53;;;;;;;25.37;13.07;;;;;;;-0.20;54.76;97192.53;5064775;28;20423;-67
2021/01/11 09:49:20;;;;;;;23.10;13.17;;;;;;;-0.45;55.34;97185.34;5059001;28;20522;-65
2021/01/11 09:51:45;;;;;;;25.80;13.63;;;;;;;-0.49;55.58;97187.22;5072761;28;20417;-65
2021/01/11 09:54:11;;;;;;;25.70;13.23;;;;;;;-0.36;55.33;97196.84;5069128;28;20448;-65
2021/01/11 09:56:38;;;;;;;26.10;13.87;;;;;;;-0.04;55.06;97196.81;5060583;28;20457;-65
2021/01/11 09:59:05;;;;;;;23.93;13.87;;;;;;;-0.17;54.53;97194.94;5069476;28;20833;-66
2021/01/11 10:01:44;;;;;;;26.93;13.10;;;;;;;0.02;54.71;97193.88;5072384;28;20451;-62
2021/01/11 10:04:11;;;;;;;24.00;13.10;;;;;;;0.29;54.77;97188.94;5073467;28;20481;-64
2021/01/11 10:06:39;;;;;;;22.53;13.50;;;;;;;0.25;55.09;97187.44;5072617;28;20744;-65
2021/01/11 10:09:05;;;;;;;22.57;13.20;;;;;;;0.38;54.40;97199.63;5072422;28;20447;-65
2021/01/11 10:11:31;;;;;;;23.77;12.73;;;;;;;0.50;54.82;97196.31;5061194;28;20457;-64
2021/01/11 10:13:57;;;;;;;19.97;11.93;;;;;;;0.56;53.57;97200.28;5063632;28;20851;-65
2021/01/11 10:16:22;;;;;;;22.00;13.50;;;;;;;0.53;53.78;97200.47;5072481;28;20488;-64
2021/01/11 10:18:48;;;;;;;21.97;13.10;;;;;;;0.71;53.12;97199.41;5053699;28;20213;-64
2021/01/11 10:21:14;;;;;;;21.87;13.40;;;;;;;0.81;52.03;97199.69;5071702;28;20594;-64
2021/01/11 10:23:39;;;;;;;21.67;13.30;;;;;;;0.87;52.40;97193.31;5070790;28;20178;-64
2021/01/11 10:26:05;;;;;;;25.93;13.70;;;;;;;0.98;52.40;97193.50;5053865;28;20258;-67
2021/01/11 10:28:31;;;;;;;22.30;13.80;;;;;;;0.57;53.10;97187.28;5071843;28;20640;-67
2021/01/11 10:30:57;;;;;;;22.83;14.37;;;;;;;0.72;53.50;97175.25;5072223;28;20228;-64
2021/01/11 10:33:23;;;;;;;25.50;14.40;;;;;;;0.71;52.91;97168.44;5070530;28;20207;-64
2021/01/11 10:35:54;;;;;;;25.90;14.63;;;;;;;0.79;53.72;97165.41;5054906;28;20431;-64
2021/01/11 10:38:20;;;;;;;24.77;13.90;;;;;;;0.67;53.14;97166.94;5069886;28;20217;-64
2021/01/11 10:40:46;;;;;;;24.37;13.97;;;;;;;0.52;53.52;97173.84;5060763;28;20806;-64
2021/01/11 10:43:11;;;;;;;23.60;13.67;;;;;;;0.86;52.09;97171.84;5064684;28;20202;-63
2021/01/11 10:45:37;;;;;;;24.43;13.90;;;;;;;1.15;52.55;97171.81;5072906;28;20186;-64
2021/01/11 10:48:03;;;;;;;23.80;14.33;;;;;;;1.30;52.52;97161.47;5064180;28;20205;-62
2021/01/11 10:50:29;;;;;;;24.93;14.53;;;;;;;1.38;51.38;97157.50;5065356;28;20181;-65
2021/01/11 10:52:54;;;;;;;22.23;13.17;;;;;;;1.23;51.30;97137.78;5069291;28;20421;-63
2021/01/11 10:55:20;;;;;;;22.13;13.67;;;;;;;1.10;51.69;97147.22;5071343;28;20175;-63
2021/01/11 10:57:46;;;;;;;22.30;14.03;;;;;;;1.30;51.40;97139.06;5034006;28;20214;-63
2021/01/11 11:00:12;;;;;;;23.50;13.90;;;;;;;1.26;50.95;97135.00;5070575;28;20178;-64
2021/01/11 11:02:38;;;;;;;22.30;13.57;;;;;;;1.58;51.06;97128.72;5071685;28;20179;-64
2021/01/11 11:05:05;;;;;;;19.97;12.30;;;;;;;1.55;50.20;97131.53;5066995;28;20423;-64
2021/01/11 11:07:38;;;;;;;22.40;12.70;;;;;;;1.39;50.45;97127.31;5067827;28;20447;-64
2021/01/11 11:10:11;;;;;;;22.03;12.27;;;;;;;1.52;51.08;97127.34;5065553;28;20923;-63
2021/01/11 11:12:36;;;;;;;21.30;13.13;;;;;;;1.40;50.70;97128.97;5062454;28;20428;-64
2021/01/11 11:15:03;;;;;;;20.27;12.63;;;;;;;1.09;51.37;97123.13;5066063;28;20879;-64
2021/01/11 11:17:32;;;;;;;22.30;12.90;;;;;;;1.31;50.65;97120.06;5071105;28;20206;-64
2021/01/11 11:19:58;;;;;;;19.80;13.07;;;;;;;0.81;51.90;97126.59;5070515;28;20427;-65
2021/01/11 11:22:25;;;;;;;20.47;12.70;;;;;;;1.28;50.65;97119.41;5063304;28;21022;-65
2021/01/11 11:24:50;;;;;;;17.27;11.07;;;;;;;0.83;50.34;97124.75;5061800;28;20429;-65
2021/01/11 11:27:16;;;;;;;19.90;11.87;;;;;;;0.87;51.06;97118.50;5064903;28;20470;-65